sensor_id;sensor_type;location;lat;lon;timestamp;pressure;altitude;pressure_sealevel;temperature;humidity
50057;BME280;36875;49.468;11.200;2023-02-28T00:00:23;98762.13;;;20.77;33.77
50057;BME280;36875;49.468;11.200;2023-02-28T00:02:48;98756.16;;;20.75;33.90
50057;BME280;36875;49.468;11.200;2023-02-28T00:05:15;98763.53;;;20.75;33.98
50057;BME280;36875;49.468;11.200;2023-02-28T00:07:41;98763.53;;;20.75;33.88
50057;BME280;36875;49.468;11.200;2023-02-28T00:10:09;98766.03;;;20.71;33.76
50057;BME280;36875;49.468;11.200;2023-02-28T00:12:36;98762.78;;;20.69;34.03
50057;BME280;36875;49.468;11.200;2023-02-28T00:15:05;98759.00;;;20.65;34.04
50057;BME280;36875;49.468;11.200;2023-02-28T00:17:31;98760.16;;;20.64;33.94
50057;BME280;36875;49.468;11.200;2023-02-28T00:19:56;98758.00;;;20.61;33.79
50057;BME280;36875;49.468;11.200;2023-02-28T00:22:27;98762.06;;;20.58;33.93
50057;BME280;36875;49.468;11.200;2023-02-28T00:24:52;98757.72;;;20.57;33.61
50057;BME280;36875;49.468;11.200;2023-02-28T00:27:18;98762.69;;;20.55;33.65
50057;BME280;36875;49.468;11.200;2023-02-28T00:29:43;98758.59;;;20.53;33.71
50057;BME280;36875;49.468;11.200;2023-02-28T00:32:10;98758.09;;;20.51;33.74
50057;BME280;36875;49.468;11.200;2023-02-28T00:34:35;98755.63;;;20.49;34.09
50057;BME280;36875;49.468;11.200;2023-02-28T00:37:03;98755.97;;;20.48;33.89
50057;BME280;36875;49.468;11.200;2023-02-28T00:39:29;98751.34;;;20.43;34.04
50057;BME280;36875;49.468;11.200;2023-02-28T00:41:54;98762.28;;;20.43;33.93
50057;BME280;36875;49.468;11.200;2023-02-28T00:44:20;98762.88;;;20.40;33.82
50057;BME280;36875;49.468;11.200;2023-02-28T00:46:46;98759.63;;;20.38;33.96
50057;BME280;36875;49.468;11.200;2023-02-28T00:49:13;98753.13;;;20.34;33.75
50057;BME280;36875;49.468;11.200;2023-02-28T00:51:38;98754.53;;;20.31;33.71
50057;BME280;36875;49.468;11.200;2023-02-28T00:54:04;98749.88;;;20.32;33.63
50057;BME280;36875;49.468;11.200;2023-02-28T00:56:30;98755.91;;;20.29;34.13
50057;BME280;36875;49.468;11.200;2023-02-28T00:58:55;98752.38;;;20.28;33.90
50057;BME280;36875;49.468;11.200;2023-02-28T01:01:20;98743.94;;;20.25;33.67
50057;BME280;36875;49.468;11.200;2023-02-28T01:03:46;98746.16;;;20.22;33.58
50057;BME280;36875;49.468;11.200;2023-02-28T01:06:13;98749.97;;;20.21;33.91
50057;BME280;36875;49.468;11.200;2023-02-28T01:08:38;98741.25;;;20.19;33.80
50057;BME280;36875;49.468;11.200;2023-02-28T01:11:08;98742.16;;;20.15;33.91
50057;BME280;36875;49.468;11.200;2023-02-28T01:13:34;98743.75;;;20.16;33.89
50057;BME280;36875;49.468;11.200;2023-02-28T01:15:59;98744.06;;;20.14;33.57
50057;BME280;36875;49.468;11.200;2023-02-28T01:18:25;98744.66;;;20.11;33.82
50057;BME280;36875;49.468;11.200;2023-02-28T01:20:50;98745.22;;;20.08;33.55
50057;BME280;36875;49.468;11.200;2023-02-28T01:23:19;98744.41;;;20.08;33.76
50057;BME280;36875;49.468;11.200;2023-02-28T01:25:45;98740.34;;;20.05;33.55
50057;BME280;36875;49.468;11.200;2023-02-28T01:28:10;98733.53;;;20.02;33.73
50057;BME280;36875;49.468;11.200;2023-02-28T01:30:36;98736.56;;;20.01;33.75
50057;BME280;36875;49.468;11.200;2023-02-28T01:33:01;98736.84;;;19.99;33.97
50057;BME280;36875;49.468;11.200;2023-02-28T01:35:27;98726.00;;;19.94;33.69
50057;BME280;36875;49.468;11.200;2023-02-28T01:37:52;98736.63;;;19.96;34.01
50057;BME280;36875;49.468;11.200;2023-02-28T01:40:19;98732.28;;;19.95;33.93
50057;BME280;36875;49.468;11.200;2023-02-28T01:42:45;98725.44;;;19.92;33.94
50057;BME280;36875;49.468;11.200;2023-02-28T01:45:20;98726.88;;;19.90;33.68
50057;BME280;36875;49.468;11.200;2023-02-28T01:47:48;98720.66;;;19.84;33.92
50057;BME280;36875;49.468;11.200;2023-02-28T01:50:18;98727.44;;;19.87;33.76
50057;BME280;36875;49.468;11.200;2023-02-28T01:52:45;98724.19;;;19.84;34.10
50057;BME280;36875;49.468;11.200;2023-02-28T01:55:12;98726.41;;;19.82;33.99
50057;BME280;36875;49.468;11.200;2023-02-28T01:57:43;98722.63;;;19.78;33.61
50057;BME280;36875;49.468;11.200;2023-02-28T02:00:13;98724.53;;;19.78;33.59
50057;BME280;36875;49.468;11.200;2023-02-28T02:02:41;98724.84;;;19.76;33.52
50057;BME280;36875;49.468;11.200;2023-02-28T02:05:11;98721.03;;;19.72;33.65
50057;BME280;36875;49.468;11.200;2023-02-28T02:07:38;98727.31;;;19.73;33.89
50057;BME280;36875;49.468;11.200;2023-02-28T02:10:12;98717.75;;;19.70;33.84
50057;BME280;36875;49.468;11.200;2023-02-28T02:13:01;98716.94;;;19.70;33.98
50057;BME280;36875;49.468;11.200;2023-02-28T02:15:33;98718.34;;;19.67;33.62
50057;BME280;36875;49.468;11.200;2023-02-28T02:18:04;98717.00;;;19.64;33.63
50057;BME280;36875;49.468;11.200;2023-02-28T02:20:46;98711.84;;;19.63;33.87
50057;BME280;36875;49.468;11.200;2023-02-28T02:23:42;98705.53;;;19.62;33.67
50057;BME280;36875;49.468;11.200;2023-02-28T02:26:30;98699.56;;;19.60;33.71
50057;BME280;36875;49.468;11.200;2023-02-28T02:29:20;98701.25;;;19.56;34.02
50057;BME280;36875;49.468;11.200;2023-02-28T02:31:57;98694.47;;;19.54;33.94
50057;BME280;36875;49.468;11.200;2023-02-28T02:34:49;98699.63;;;19.55;33.90
50057;BME280;36875;49.468;11.200;2023-02-28T02:37:25;98690.09;;;19.53;33.62
50057;BME280;36875;49.468;11.200;2023-02-28T02:40:02;98689.56;;;19.51;33.53
50057;BME280;36875;49.468;11.200;2023-02-28T02:42:33;98701.59;;;19.50;33.60
50057;BME280;36875;49.468;11.200;2023-02-28T02:45:06;98699.97;;;19.49;33.79
50057;BME280;36875;49.468;11.200;2023-02-28T02:47:35;98688.56;;;19.41;34.02
50057;BME280;36875;49.468;11.200;2023-02-28T02:50:05;98704.34;;;19.44;33.53
50057;BME280;36875;49.468;11.200;2023-02-28T02:52:36;98709.00;;;19.44;33.40
50057;BME280;36875;49.468;11.200;2023-02-28T02:55:05;98712.03;;;19.42;33.91
50057;BME280;36875;49.468;11.200;2023-02-28T02:57:34;98710.69;;;19.40;33.74
50057;BME280;36875;49.468;11.200;2023-02-28T03:00:03;98707.97;;;19.40;33.82
50057;BME280;36875;49.468;11.200;2023-02-28T03:02:31;98713.72;;;19.38;33.78
50057;BME280;36875;49.468;11.200;2023-02-28T03:05:02;98714.00;;;19.37;33.43
50057;BME280;36875;49.468;11.200;2023-02-28T03:07:31;98708.53;;;19.37;33.67
50057;BME280;36875;49.468;11.200;2023-02-28T03:09:57;98706.69;;;19.32;33.53
50057;BME280;36875;49.468;11.200;2023-02-28T03:12:33;98701.78;;;19.29;33.90
50057;BME280;36875;49.468;11.200;2023-02-28T03:15:10;98709.69;;;19.31;33.63
50057;BME280;36875;49.468;11.200;2023-02-28T03:17:52;98714.34;;;19.30;33.41
50057;BME280;36875;49.468;11.200;2023-02-28T03:20:29;98714.09;;;19.26;33.72
50057;BME280;36875;49.468;11.200;2023-02-28T03:23:10;98712.47;;;19.25;33.90
50057;BME280;36875;49.468;11.200;2023-02-28T03:25:47;98713.56;;;19.24;33.41
50057;BME280;36875;49.468;11.200;2023-02-28T03:28:21;98715.47;;;19.24;33.87
50057;BME280;36875;49.468;11.200;2023-02-28T03:30:49;98701.91;;;19.19;33.71
50057;BME280;36875;49.468;11.200;2023-02-28T03:33:21;98709.75;;;19.20;33.69
50057;BME280;36875;49.468;11.200;2023-02-28T03:35:52;98707.34;;;19.19;33.56
50057;BME280;36875;49.468;11.200;2023-02-28T03:38:22;98711.44;;;19.16;33.77
50057;BME280;36875;49.468;11.200;2023-02-28T03:40:55;98713.09;;;19.17;33.78
50057;BME280;36875;49.468;11.200;2023-02-28T03:43:25;98711.72;;;19.15;33.88
50057;BME280;36875;49.468;11.200;2023-02-28T03:45:54;98712.84;;;19.14;33.47
50057;BME280;36875;49.468;11.200;2023-02-28T03:48:22;98710.69;;;19.11;33.74
50057;BME280;36875;49.468;11.200;2023-02-28T03:50:52;98713.41;;;19.11;33.44
50057;BME280;36875;49.468;11.200;2023-02-28T03:53:23;98717.22;;;19.10;33.48
50057;BME280;36875;49.468;11.200;2023-02-28T03:55:53;98712.91;;;19.03;33.55
50057;BME280;36875;49.468;11.200;2023-02-28T03:58:27;98715.09;;;19.06;33.60
50057;BME280;36875;49.468;11.200;2023-02-28T04:00:58;98711.84;;;19.04;33.43
50057;BME280;36875;49.468;11.200;2023-02-28T04:03:32;98717.28;;;19.04;33.51
50057;BME280;36875;49.468;11.200;2023-02-28T04:05:58;98705.84;;;19.02;33.41
50057;BME280;36875;49.468;11.200;2023-02-28T04:08:25;98714.84;;;19.03;33.84
50057;BME280;36875;49.468;11.200;2023-02-28T04:10:54;98711.59;;;19.01;33.82
50057;BME280;36875;49.468;11.200;2023-02-28T04:13:20;98716.22;;;19.00;33.79
50057;BME280;36875;49.468;11.200;2023-02-28T04:15:45;98712.94;;;18.98;33.84
50057;BME280;36875;49.468;11.200;2023-02-28T04:18:11;98721.44;;;18.97;33.77
50057;BME280;36875;49.468;11.200;2023-02-28T04:20:36;98717.06;;;18.96;33.62
50057;BME280;36875;49.468;11.200;2023-02-28T04:23:02;98725.25;;;18.96;33.46
50057;BME280;36875;49.468;11.200;2023-02-28T04:25:28;98717.34;;;18.94;33.72
50057;BME280;36875;49.468;11.200;2023-02-28T04:27:54;98717.63;;;18.93;33.75
50057;BME280;36875;49.468;11.200;2023-02-28T04:30:19;98714.38;;;18.91;33.82
50057;BME280;36875;49.468;11.200;2023-02-28T04:32:45;98713.56;;;18.90;33.74
50057;BME280;36875;49.468;11.200;2023-02-28T04:35:10;98713.84;;;18.88;33.80
50057;BME280;36875;49.468;11.200;2023-02-28T04:37:36;98712.22;;;18.87;33.67
50057;BME280;36875;49.468;11.200;2023-02-28T04:40:02;98722.31;;;18.87;33.86
50057;BME280;36875;49.468;11.200;2023-02-28T04:42:29;98720.69;;;18.86;33.38
50057;BME280;36875;49.468;11.200;2023-02-28T04:45:01;98706.53;;;18.79;33.74
50057;BME280;36875;49.468;11.200;2023-02-28T04:47:27;98713.88;;;18.83;33.38
50057;BME280;36875;49.468;11.200;2023-02-28T04:49:52;98711.44;;;18.82;33.74
50057;BME280;36875;49.468;11.200;2023-02-28T04:52:17;98715.28;;;18.81;33.78
50057;BME280;36875;49.468;11.200;2023-02-28T04:54:43;98715.28;;;18.81;33.27
50057;BME280;36875;49.468;11.200;2023-02-28T04:57:09;98711.16;;;18.78;33.38
50057;BME280;36875;49.468;11.200;2023-02-28T04:59:35;98708.75;;;18.77;33.74
50057;BME280;36875;49.468;11.200;2023-02-28T05:02:01;98715.28;;;18.76;33.48
50057;BME280;36875;49.468;11.200;2023-02-28T05:04:31;98710.91;;;18.75;33.60
50057;BME280;36875;49.468;11.200;2023-02-28T05:06:59;98716.34;;;18.75;33.38
50057;BME280;36875;49.468;11.200;2023-02-28T05:09:24;98720.19;;;18.74;33.50
50057;BME280;36875;49.468;11.200;2023-02-28T05:11:50;98721.28;;;18.73;33.53
50057;BME280;36875;49.468;11.200;2023-02-28T05:14:15;98718.88;;;18.71;33.66
50057;BME280;36875;49.468;11.200;2023-02-28T05:16:42;98718.03;;;18.71;33.46
50057;BME280;36875;49.468;11.200;2023-02-28T05:19:08;98725.41;;;18.70;33.26
50057;BME280;36875;49.468;11.200;2023-02-28T05:21:34;98725.69;;;18.68;33.28
50057;BME280;36875;49.468;11.200;2023-02-28T05:24:02;98725.16;;;18.66;33.30
50057;BME280;36875;49.468;11.200;2023-02-28T05:26:28;98719.72;;;18.61;33.38
50057;BME280;36875;49.468;11.200;2023-02-28T05:28:54;98726.22;;;18.65;33.40
50057;BME280;36875;49.468;11.200;2023-02-28T05:31:21;98738.25;;;18.64;33.25
50057;BME280;36875;49.468;11.200;2023-02-28T05:33:48;98734.72;;;18.64;33.41
50057;BME280;36875;49.468;11.200;2023-02-28T05:36:13;98736.09;;;18.61;33.17
50057;BME280;36875;49.468;11.200;2023-02-28T05:38:39;98734.19;;;18.62;33.66
50057;BME280;36875;49.468;11.200;2023-02-28T05:41:06;98738.00;;;18.61;33.14
50057;BME280;36875;49.468;11.200;2023-02-28T05:43:32;98732.03;;;18.59;33.50
50057;BME280;36875;49.468;11.200;2023-02-28T05:45:57;98738.28;;;18.59;33.21
50057;BME280;36875;49.468;11.200;2023-02-28T05:48:22;98747.56;;;18.58;33.37
50057;BME280;36875;49.468;11.200;2023-02-28T05:50:49;98744.28;;;18.56;33.37
50057;BME280;36875;49.468;11.200;2023-02-28T05:53:15;98746.19;;;18.56;33.10
50057;BME280;36875;49.468;11.200;2023-02-28T05:55:40;98748.13;;;18.55;33.19
50057;BME280;36875;49.468;11.200;2023-02-28T05:58:06;98747.31;;;18.55;33.28
50057;BME280;36875;49.468;11.200;2023-02-28T06:00:31;98754.66;;;18.54;33.50
50057;BME280;36875;49.468;11.200;2023-02-28T06:02:57;98760.38;;;18.53;33.50
50057;BME280;36875;49.468;11.200;2023-02-28T06:05:26;98752.50;;;18.51;33.46
50057;BME280;36875;49.468;11.200;2023-02-28T06:07:54;98756.06;;;18.46;33.49
50057;BME280;36875;49.468;11.200;2023-02-28T06:10:19;98754.47;;;18.40;33.57
50057;BME280;36875;49.468;11.200;2023-02-28T06:12:45;98756.94;;;18.37;33.50
50057;BME280;36875;49.468;11.200;2023-02-28T06:15:12;98764.59;;;18.35;33.55
50057;BME280;36875;49.468;11.200;2023-02-28T06:17:38;98761.84;;;18.35;34.04
50057;BME280;36875;49.468;11.200;2023-02-28T06:20:04;98761.31;;;18.33;33.62
50057;BME280;36875;49.468;11.200;2023-02-28T06:22:30;98762.13;;;18.33;33.92
50057;BME280;36875;49.468;11.200;2023-02-28T06:24:58;98762.94;;;18.34;33.54
50057;BME280;36875;49.468;11.200;2023-02-28T06:27:23;98761.03;;;18.34;33.53
50057;BME280;36875;49.468;11.200;2023-02-28T06:29:53;98759.69;;;18.32;33.60
50057;BME280;36875;49.468;11.200;2023-02-28T06:32:18;98767.31;;;18.35;34.03
50057;BME280;36875;49.468;11.200;2023-02-28T06:34:45;98770.84;;;18.35;34.01
50057;BME280;36875;49.468;11.200;2023-02-28T06:37:10;98766.78;;;18.33;33.81
50057;BME280;36875;49.468;11.200;2023-02-28T06:39:36;98767.31;;;18.29;34.34
50057;BME280;36875;49.468;11.200;2023-02-28T06:42:03;98765.69;;;18.28;34.37
50057;BME280;36875;49.468;11.200;2023-02-28T06:44:28;98769.50;;;18.27;33.98
50057;BME280;36875;49.468;11.200;2023-02-28T06:47:00;98782.34;;;18.27;34.30
50057;BME280;36875;49.468;11.200;2023-02-28T06:49:28;98777.69;;;18.22;34.16
50057;BME280;36875;49.468;11.200;2023-02-28T06:51:53;98776.03;;;18.26;33.99
50057;BME280;36875;49.468;11.200;2023-02-28T06:54:19;98776.88;;;18.27;34.41
50057;BME280;36875;49.468;11.200;2023-02-28T06:56:45;98776.88;;;18.27;34.41
50057;BME280;36875;49.468;11.200;2023-02-28T06:59:13;98778.22;;;18.29;34.49
50057;BME280;36875;49.468;11.200;2023-02-28T07:01:40;98780.94;;;18.29;34.29
50057;BME280;36875;49.468;11.200;2023-02-28T07:04:05;98777.41;;;18.29;34.42
50057;BME280;36875;49.468;11.200;2023-02-28T07:06:31;98784.19;;;18.32;34.41
50057;BME280;36875;49.468;11.200;2023-02-28T07:08:57;98786.38;;;18.35;35.01
50057;BME280;36875;49.468;11.200;2023-02-28T07:11:25;98781.47;;;18.32;34.67
50057;BME280;36875;49.468;11.200;2023-02-28T07:13:51;98790.16;;;18.44;35.00
50057;BME280;36875;49.468;11.200;2023-02-28T07:16:18;98787.31;;;18.64;34.79
50057;BME280;36875;49.468;11.200;2023-02-28T07:18:43;98793.25;;;18.82;34.64
50057;BME280;36875;49.468;11.200;2023-02-28T07:21:12;98783.34;;;18.96;34.10
50057;BME280;36875;49.468;11.200;2023-02-28T07:23:38;98792.00;;;19.09;34.20
50057;BME280;36875;49.468;11.200;2023-02-28T07:26:04;98789.44;;;19.22;33.70
50057;BME280;36875;49.468;11.200;2023-02-28T07:28:30;98792.34;;;19.36;33.67
50057;BME280;36875;49.468;11.200;2023-02-28T07:30:56;98790.34;;;19.47;33.51
50057;BME280;36875;49.468;11.200;2023-02-28T07:33:23;98793.78;;;19.58;33.17
50057;BME280;36875;49.468;11.200;2023-02-28T07:35:49;98798.06;;;19.69;33.18
50057;BME280;36875;49.468;11.200;2023-02-28T07:38:14;98790.34;;;19.47;33.39
50057;BME280;36875;49.468;11.200;2023-02-28T07:40:40;98801.53;;;19.11;34.34
50057;BME280;36875;49.468;11.200;2023-02-28T07:43:06;98790.44;;;18.97;34.32
50057;BME280;36875;49.468;11.200;2023-02-28T07:45:31;98791.56;;;18.91;34.88
50057;BME280;36875;49.468;11.200;2023-02-28T07:47:59;98796.47;;;18.89;34.61
50057;BME280;36875;49.468;11.200;2023-02-28T07:50:26;98795.94;;;18.87;34.90
50057;BME280;36875;49.468;11.200;2023-02-28T07:52:56;98799.78;;;18.86;35.19
50057;BME280;36875;49.468;11.200;2023-02-28T07:55:21;98786.16;;;18.86;34.81
50057;BME280;36875;49.468;11.200;2023-02-28T07:57:47;98798.41;;;18.88;35.30
50057;BME280;36875;49.468;11.200;2023-02-28T08:00:13;98797.06;;;18.86;35.47
50057;BME280;36875;49.468;11.200;2023-02-28T08:02:41;98793.75;;;18.89;35.34
50057;BME280;36875;49.468;11.200;2023-02-28T08:05:07;98803.56;;;18.90;35.40
50057;BME280;36875;49.468;11.200;2023-02-28T08:07:34;98802.94;;;19.03;35.15
50057;BME280;36875;49.468;11.200;2023-02-28T08:09:59;98800.69;;;19.16;35.01
50057;BME280;36875;49.468;11.200;2023-02-28T08:12:25;98796.00;;;19.21;35.03
50057;BME280;36875;49.468;11.200;2023-02-28T08:14:51;98795.44;;;19.24;34.59
50057;BME280;36875;49.468;11.200;2023-02-28T08:17:16;98804.94;;;19.32;34.86
50057;BME280;36875;49.468;11.200;2023-02-28T08:19:45;98794.53;;;19.34;34.30
50057;BME280;36875;49.468;11.200;2023-02-28T08:22:10;98786.31;;;19.39;34.27
50057;BME280;36875;49.468;11.200;2023-02-28T08:24:38;98790.59;;;19.51;34.17
50057;BME280;36875;49.468;11.200;2023-02-28T08:27:04;98795.78;;;19.47;34.03
50057;BME280;36875;49.468;11.200;2023-02-28T08:29:29;98793.88;;;19.48;34.02
50057;BME280;36875;49.468;11.200;2023-02-28T08:31:55;98803.94;;;19.52;33.75
50057;BME280;36875;49.468;11.200;2023-02-28T08:34:21;98796.00;;;19.56;33.68
50057;BME280;36875;49.468;11.200;2023-02-28T08:36:46;98793.50;;;19.59;34.15
50057;BME280;36875;49.468;11.200;2023-02-28T08:39:12;98794.84;;;19.62;34.04
50057;BME280;36875;49.468;11.200;2023-02-28T08:41:39;98784.22;;;19.60;33.98
50057;BME280;36875;49.468;11.200;2023-02-28T08:44:05;98800.28;;;19.67;33.92
50057;BME280;36875;49.468;11.200;2023-02-28T08:46:30;98789.34;;;19.67;33.92
50057;BME280;36875;49.468;11.200;2023-02-28T08:48:57;98796.41;;;19.68;33.67
50057;BME280;36875;49.468;11.200;2023-02-28T08:51:27;98795.31;;;19.69;33.88
50057;BME280;36875;49.468;11.200;2023-02-28T08:53:54;98800.50;;;19.71;33.82
50057;BME280;36875;49.468;11.200;2023-02-28T08:56:21;98801.88;;;19.68;33.93
50057;BME280;36875;49.468;11.200;2023-02-28T08:58:49;98804.03;;;19.71;33.97
50057;BME280;36875;49.468;11.200;2023-02-28T09:01:17;98793.78;;;19.58;34.42
50057;BME280;36875;49.468;11.200;2023-02-28T09:03:43;98796.63;;;19.42;34.86
50057;BME280;36875;49.468;11.200;2023-02-28T09:06:11;98803.53;;;19.35;35.45
50057;BME280;36875;49.468;11.200;2023-02-28T09:08:37;98803.28;;;19.31;35.40
50057;BME280;36875;49.468;11.200;2023-02-28T09:11:03;98795.13;;;19.26;35.30
50057;BME280;36875;49.468;11.200;2023-02-28T09:13:29;98799.50;;;19.27;35.46
50057;BME280;36875;49.468;11.200;2023-02-28T09:15:57;98804.44;;;19.25;35.62
50057;BME280;36875;49.468;11.200;2023-02-28T09:18:23;98797.84;;;19.26;35.92
50057;BME280;36875;49.468;11.200;2023-02-28T09:20:48;98794.31;;;19.25;35.59
50057;BME280;36875;49.468;11.200;2023-02-28T09:23:14;98793.25;;;19.26;35.49
50057;BME280;36875;49.468;11.200;2023-02-28T09:25:46;98795.69;;;19.28;35.69
50057;BME280;36875;49.468;11.200;2023-02-28T09:28:11;98792.41;;;19.26;35.50
50057;BME280;36875;49.468;11.200;2023-02-28T09:30:37;98801.97;;;19.23;35.71
50057;BME280;36875;49.468;11.200;2023-02-28T09:33:04;98799.53;;;19.22;36.05
50057;BME280;36875;49.468;11.200;2023-02-28T09:35:29;98794.59;;;19.24;35.57
50057;BME280;36875;49.468;11.200;2023-02-28T09:37:56;98797.31;;;19.29;35.81
50057;BME280;36875;49.468;11.200;2023-02-28T09:40:23;98788.56;;;19.32;35.86
50057;BME280;36875;49.468;11.200;2023-02-28T09:42:52;98791.25;;;19.37;35.56
50057;BME280;36875;49.468;11.200;2023-02-28T09:45:22;98784.94;;;19.37;36.02
50057;BME280;36875;49.468;11.200;2023-02-28T09:47:50;98795.78;;;19.47;35.68
50057;BME280;36875;49.468;11.200;2023-02-28T09:50:23;98790.88;;;19.49;35.38
50057;BME280;36875;49.468;11.200;2023-02-28T09:52:55;98793.03;;;19.52;35.54
50057;BME280;36875;49.468;11.200;2023-02-28T09:55:26;98800.94;;;19.54;35.57
50057;BME280;36875;49.468;11.200;2023-02-28T09:57:54;98793.50;;;19.59;35.74
50057;BME280;36875;49.468;11.200;2023-02-28T10:00:25;98793.75;;;19.63;35.88
50057;BME280;36875;49.468;11.200;2023-02-28T10:03:04;98801.63;;;19.64;35.47
50057;BME280;36875;49.468;11.200;2023-02-28T10:05:38;98800.03;;;19.63;36.04
50057;BME280;36875;49.468;11.200;2023-02-28T10:08:11;98793.75;;;19.63;35.95
50057;BME280;36875;49.468;11.200;2023-02-28T10:10:41;98799.78;;;19.60;36.23
50057;BME280;36875;49.468;11.200;2023-02-28T10:13:15;98789.19;;;19.53;36.16
50057;BME280;36875;49.468;11.200;2023-02-28T10:15:44;98796.81;;;19.56;36.29
50057;BME280;36875;49.468;11.200;2023-02-28T10:18:15;98800.09;;;19.53;35.98
50057;BME280;36875;49.468;11.200;2023-02-28T10:20:43;98799.28;;;19.53;36.19
50057;BME280;36875;49.468;11.200;2023-02-28T10:23:13;98803.34;;;19.55;35.86
50057;BME280;36875;49.468;11.200;2023-02-28T10:25:45;98799.53;;;19.56;35.67
50057;BME280;36875;49.468;11.200;2023-02-28T10:28:15;98792.69;;;19.59;35.97
50057;BME280;36875;49.468;11.200;2023-02-28T10:30:42;98791.59;;;19.60;35.87
50057;BME280;36875;49.468;11.200;2023-02-28T10:33:17;98786.09;;;19.65;35.64
50057;BME280;36875;49.468;11.200;2023-02-28T10:35:45;98789.91;;;19.64;36.04
50057;BME280;36875;49.468;11.200;2023-02-28T10:38:16;98789.34;;;19.67;35.92
50057;BME280;36875;49.468;11.200;2023-02-28T10:40:42;98786.34;;;19.69;36.14
50057;BME280;36875;49.468;11.200;2023-02-28T10:43:18;98785.19;;;19.75;36.09
50057;BME280;36875;49.468;11.200;2023-02-28T10:45:53;98781.09;;;19.72;35.90
50057;BME280;36875;49.468;11.200;2023-02-28T10:48:29;98785.16;;;19.80;35.69
50057;BME280;36875;49.468;11.200;2023-02-28T10:50:57;98788.16;;;19.78;35.79
50057;BME280;36875;49.468;11.200;2023-02-28T10:53:31;98789.22;;;19.82;35.98
50057;BME280;36875;49.468;11.200;2023-02-28T10:55:59;98785.41;;;19.83;35.63
50057;BME280;36875;49.468;11.200;2023-02-28T10:58:28;98795.16;;;19.90;35.54
50057;BME280;36875;49.468;11.200;2023-02-28T11:00:54;98789.41;;;19.91;35.58
50057;BME280;36875;49.468;11.200;2023-02-28T11:03:28;98784.75;;;19.92;35.48
50057;BME280;36875;49.468;11.200;2023-02-28T11:05:54;98790.22;;;19.92;35.58
50057;BME280;36875;49.468;11.200;2023-02-28T11:08:21;98788.59;;;19.91;35.75
50057;BME280;36875;49.468;11.200;2023-02-28T11:10:53;98789.69;;;19.90;35.92
50057;BME280;36875;49.468;11.200;2023-02-28T11:13:20;98784.75;;;19.92;35.72
50057;BME280;36875;49.468;11.200;2023-02-28T11:15:51;98801.38;;;19.95;35.57
50057;BME280;36875;49.468;11.200;2023-02-28T11:18:23;98797.84;;;19.95;35.60
50057;BME280;36875;49.468;11.200;2023-02-28T11:20:50;98784.41;;;19.98;35.79
50057;BME280;36875;49.468;11.200;2023-02-28T11:23:21;98788.47;;;20.01;35.78
50057;BME280;36875;49.468;11.200;2023-02-28T11:25:50;98774.28;;;19.99;35.62
50057;BME280;36875;49.468;11.200;2023-02-28T11:28:34;98788.72;;;20.05;35.68
50057;BME280;36875;49.468;11.200;2023-02-28T11:31:02;98789.50;;;20.05;35.71
50057;BME280;36875;49.468;11.200;2023-02-28T11:33:31;98789.34;;;19.96;36.07
50057;BME280;36875;49.468;11.200;2023-02-28T11:36:01;98785.91;;;19.86;35.73
50057;BME280;36875;49.468;11.200;2023-02-28T11:38:28;98778.94;;;19.74;35.24
50057;BME280;36875;49.468;11.200;2023-02-28T11:41:24;98781.91;;;19.78;34.82
50057;BME280;36875;49.468;11.200;2023-02-28T11:44:04;98778.84;;;19.79;34.82
50057;BME280;36875;49.468;11.200;2023-02-28T11:46:37;98777.69;;;19.91;34.57
50057;BME280;36875;49.468;11.200;2023-02-28T11:49:16;98770.25;;;19.96;34.74
50057;BME280;36875;49.468;11.200;2023-02-28T11:51:48;98757.16;;;19.93;34.93
50057;BME280;36875;49.468;11.200;2023-02-28T11:54:32;98762.56;;;19.98;34.73
50057;BME280;36875;49.468;11.200;2023-02-28T11:57:14;98768.81;;;19.99;34.90
50057;BME280;36875;49.468;11.200;2023-02-28T11:59:54;98771.50;;;20.04;35.02
50057;BME280;36875;49.468;11.200;2023-02-28T12:02:25;98762.19;;;20.05;35.12
50057;BME280;36875;49.468;11.200;2023-02-28T12:05:18;98762.19;;;20.05;35.40
50057;BME280;36875;49.468;11.200;2023-02-28T12:07:54;98771.75;;;20.08;35.18
50057;BME280;36875;49.468;11.200;2023-02-28T12:10:26;98774.19;;;20.09;35.12
50057;BME280;36875;49.468;11.200;2023-02-28T12:13:03;98768.72;;;20.09;35.27
50057;BME280;36875;49.468;11.200;2023-02-28T12:18:56;98757.78;;;20.09;35.53
50057;BME280;36875;49.468;11.200;2023-02-28T12:21:33;98760.75;;;20.13;35.64
50057;BME280;36875;49.468;11.200;2023-02-28T12:27:07;98765.09;;;20.14;35.95
50057;BME280;36875;49.468;11.200;2023-02-28T12:29:42;98758.25;;;20.16;35.80
50057;BME280;36875;49.468;11.200;2023-02-28T12:32:12;98755.22;;;20.18;35.61
50057;BME280;36875;49.468;11.200;2023-02-28T12:34:44;98748.41;;;20.15;35.91
50057;BME280;36875;49.468;11.200;2023-02-28T12:37:13;98757.13;;;20.17;35.62
50057;BME280;36875;49.468;11.200;2023-02-28T12:39:42;98751.97;;;20.16;35.75
50057;BME280;36875;49.468;11.200;2023-02-28T12:42:13;98732.69;;;20.07;36.12
50057;BME280;36875;49.468;11.200;2023-02-28T12:44:46;98747.09;;;20.13;35.98
50057;BME280;36875;49.468;11.200;2023-02-28T12:47:16;98751.72;;;20.12;35.98
50057;BME280;36875;49.468;11.200;2023-02-28T12:49:47;98743.53;;;20.12;35.88
50057;BME280;36875;49.468;11.200;2023-02-28T12:52:18;98745.47;;;20.12;35.59
50057;BME280;36875;49.468;11.200;2023-02-28T12:54:50;98744.94;;;20.10;35.93
50057;BME280;36875;49.468;11.200;2023-02-28T12:57:24;98735.41;;;20.07;35.54
50057;BME280;36875;49.468;11.200;2023-02-28T12:59:55;98730.53;;;20.04;36.04
50057;BME280;36875;49.468;11.200;2023-02-28T13:02:44;98739.81;;;20.03;35.85
50057;BME280;36875;49.468;11.200;2023-02-28T13:05:26;98734.19;;;20.18;35.02